sensor_id;sensor_type;location;lat;lon;timestamp;temperature;humidity
17284;DHT22;8760;52.248;20.952;2022-08-19T00:00:47;23.40;99.90
17284;DHT22;8760;52.248;20.952;2022-08-19T00:03:16;23.50;1.00
17284;DHT22;8760;52.248;20.952;2022-08-19T00:05:42;23.50;1.00
17284;DHT22;8760;52.248;20.952;2022-08-19T00:08:09;23.50;1.00
17284;DHT22;8760;52.248;20.952;2022-08-19T00:10:36;23.50;1.00
17284;DHT22;8760;52.248;20.952;2022-08-19T00:13:03;23.60;99.90
17284;DHT22;8760;52.248;20.952;2022-08-19T00:15:31;23.60;1.00
17284;DHT22;8760;52.248;20.952;2022-08-19T00:17:58;23.60;99.90
17284;DHT22;8760;52.248;20.952;2022-08-19T00:20:25;23.60;99.90
17284;DHT22;8760;52.248;20.952;2022-08-19T00:22:52;23.60;99.90
17284;DHT22;8760;52.248;20.952;2022-08-19T00:25:20;23.60;99.90
17284;DHT22;8760;52.248;20.952;2022-08-19T00:27:46;23.50;99.90
17284;DHT22;8760;52.248;20.952;2022-08-19T00:30:14;23.50;1.00
17284;DHT22;8760;52.248;20.952;2022-08-19T00:32:42;23.50;1.00
17284;DHT22;8760;52.248;20.952;2022-08-19T00:35:09;23.50;1.00
17284;DHT22;8760;52.248;20.952;2022-08-19T00:37:37;23.50;1.00
17284;DHT22;8760;52.248;20.952;2022-08-19T00:40:10;23.50;1.00
17284;DHT22;8760;52.248;20.952;2022-08-19T00:42:37;23.50;1.00
17284;DHT22;8760;52.248;20.952;2022-08-19T00:45:10;23.40;1.00
17284;DHT22;8760;52.248;20.952;2022-08-19T00:47:37;23.40;99.90
17284;DHT22;8760;52.248;20.952;2022-08-19T00:50:07;23.30;1.00
17284;DHT22;8760;52.248;20.952;2022-08-19T00:52:37;23.30;1.00
17284;DHT22;8760;52.248;20.952;2022-08-19T00:55:08;23.30;1.00
17284;DHT22;8760;52.248;20.952;2022-08-19T00:57:38;23.30;1.00
17284;DHT22;8760;52.248;20.952;2022-08-19T01:00:09;23.20;1.00
17284;DHT22;8760;52.248;20.952;2022-08-19T01:02:37;23.20;1.00
17284;DHT22;8760;52.248;20.952;2022-08-19T01:05:09;23.10;65.70
17284;DHT22;8760;52.248;20.952;2022-08-19T01:07:38;23.10;99.90
17284;DHT22;8760;52.248;20.952;2022-08-19T01:10:09;23.10;1.00
17284;DHT22;8760;52.248;20.952;2022-08-19T01:12:37;23.00;1.00
17284;DHT22;8760;52.248;20.952;2022-08-19T01:15:05;22.90;1.00
17284;DHT22;8760;52.248;20.952;2022-08-19T01:17:33;22.80;1.00
17284;DHT22;8760;52.248;20.952;2022-08-19T01:20:00;22.70;1.00
17284;DHT22;8760;52.248;20.952;2022-08-19T01:22:30;22.80;1.00
17284;DHT22;8760;52.248;20.952;2022-08-19T01:24:58;22.70;1.00
17284;DHT22;8760;52.248;20.952;2022-08-19T01:27:25;22.80;1.00
17284;DHT22;8760;52.248;20.952;2022-08-19T01:29:51;22.80;1.00
17284;DHT22;8760;52.248;20.952;2022-08-19T01:32:18;22.90;99.90
17284;DHT22;8760;52.248;20.952;2022-08-19T01:34:45;23.00;99.90
17284;DHT22;8760;52.248;20.952;2022-08-19T01:37:14;23.10;29.60
17284;DHT22;8760;52.248;20.952;2022-08-19T01:39:42;23.10;99.90
17284;DHT22;8760;52.248;20.952;2022-08-19T01:42:09;23.10;99.90
17284;DHT22;8760;52.248;20.952;2022-08-19T01:44:38;23.10;1.00
17284;DHT22;8760;52.248;20.952;2022-08-19T01:47:06;23.10;95.10
17284;DHT22;8760;52.248;20.952;2022-08-19T01:49:34;23.10;99.90
17284;DHT22;8760;52.248;20.952;2022-08-19T01:52:01;23.10;99.90
17284;DHT22;8760;52.248;20.952;2022-08-19T01:54:29;23.10;99.90
17284;DHT22;8760;52.248;20.952;2022-08-19T01:57:00;23.10;1.00
17284;DHT22;8760;52.248;20.952;2022-08-19T01:59:27;23.10;1.00
17284;DHT22;8760;52.248;20.952;2022-08-19T02:01:54;23.00;1.00
17284;DHT22;8760;52.248;20.952;2022-08-19T02:04:21;23.00;99.90
17284;DHT22;8760;52.248;20.952;2022-08-19T02:06:49;23.00;1.00
17284;DHT22;8760;52.248;20.952;2022-08-19T02:09:16;22.90;99.90
17284;DHT22;8760;52.248;20.952;2022-08-19T02:11:42;22.80;1.00
17284;DHT22;8760;52.248;20.952;2022-08-19T02:14:11;22.70;1.00
17284;DHT22;8760;52.248;20.952;2022-08-19T02:16:38;22.60;1.00
17284;DHT22;8760;52.248;20.952;2022-08-19T02:19:05;22.50;1.00
17284;DHT22;8760;52.248;20.952;2022-08-19T02:21:33;22.40;1.00
17284;DHT22;8760;52.248;20.952;2022-08-19T02:24:00;22.30;1.00
17284;DHT22;8760;52.248;20.952;2022-08-19T02:26:28;22.20;1.00
17284;DHT22;8760;52.248;20.952;2022-08-19T02:28:55;22.10;1.00
17284;DHT22;8760;52.248;20.952;2022-08-19T02:31:25;22.00;1.00
17284;DHT22;8760;52.248;20.952;2022-08-19T02:33:53;22.00;6.20
17284;DHT22;8760;52.248;20.952;2022-08-19T02:36:21;21.90;15.50
17284;DHT22;8760;52.248;20.952;2022-08-19T02:38:48;21.90;17.60
17284;DHT22;8760;52.248;20.952;2022-08-19T02:41:17;21.90;28.00
17284;DHT22;8760;52.248;20.952;2022-08-19T02:43:44;21.80;37.90
17284;DHT22;8760;52.248;20.952;2022-08-19T02:46:16;21.80;23.80
17284;DHT22;8760;52.248;20.952;2022-08-19T02:48:47;21.80;22.20
17284;DHT22;8760;52.248;20.952;2022-08-19T02:51:19;21.70;37.10
17284;DHT22;8760;52.248;20.952;2022-08-19T02:53:46;21.70;27.30
17284;DHT22;8760;52.248;20.952;2022-08-19T02:56:13;21.70;30.20
17284;DHT22;8760;52.248;20.952;2022-08-19T02:58:40;21.70;36.80
17284;DHT22;8760;52.248;20.952;2022-08-19T03:01:08;21.60;56.70
17284;DHT22;8760;52.248;20.952;2022-08-19T03:03:36;21.60;64.50
17284;DHT22;8760;52.248;20.952;2022-08-19T03:06:07;21.60;57.80
17284;DHT22;8760;52.248;20.952;2022-08-19T03:08:35;21.50;65.00
17284;DHT22;8760;52.248;20.952;2022-08-19T03:11:03;21.50;96.90
17284;DHT22;8760;52.248;20.952;2022-08-19T03:13:30;21.40;95.00
17284;DHT22;8760;52.248;20.952;2022-08-19T03:15:57;21.40;99.30
17284;DHT22;8760;52.248;20.952;2022-08-19T03:18:23;21.40;98.40
17284;DHT22;8760;52.248;20.952;2022-08-19T03:20:52;21.30;93.80
17284;DHT22;8760;52.248;20.952;2022-08-19T03:23:21;21.30;93.00
17284;DHT22;8760;52.248;20.952;2022-08-19T03:25:49;21.30;99.90
17284;DHT22;8760;52.248;20.952;2022-08-19T03:28:17;21.20;99.90
17284;DHT22;8760;52.248;20.952;2022-08-19T03:30:56;21.20;99.90
17284;DHT22;8760;52.248;20.952;2022-08-19T03:33:23;21.20;99.90
17284;DHT22;8760;52.248;20.952;2022-08-19T03:36:00;21.20;99.90
17284;DHT22;8760;52.248;20.952;2022-08-19T03:38:29;21.20;99.90
17284;DHT22;8760;52.248;20.952;2022-08-19T03:40:55;21.10;99.90
17284;DHT22;8760;52.248;20.952;2022-08-19T03:43:22;21.10;99.90
17284;DHT22;8760;52.248;20.952;2022-08-19T03:45:49;21.10;99.90
17284;DHT22;8760;52.248;20.952;2022-08-19T03:48:25;21.10;99.90
17284;DHT22;8760;52.248;20.952;2022-08-19T03:50:52;21.10;99.90
17284;DHT22;8760;52.248;20.952;2022-08-19T03:53:18;21.10;99.90
17284;DHT22;8760;52.248;20.952;2022-08-19T03:55:46;21.10;99.90
17284;DHT22;8760;52.248;20.952;2022-08-19T03:58:13;21.10;99.90
17284;DHT22;8760;52.248;20.952;2022-08-19T04:00:41;21.20;99.90
17284;DHT22;8760;52.248;20.952;2022-08-19T04:03:08;21.30;72.10
17284;DHT22;8760;52.248;20.952;2022-08-19T04:05:35;21.40;96.40
17284;DHT22;8760;52.248;20.952;2022-08-19T04:08:03;21.40;99.90
17284;DHT22;8760;52.248;20.952;2022-08-19T04:10:34;21.60;82.50
17284;DHT22;8760;52.248;20.952;2022-08-19T04:13:03;21.60;92.80
17284;DHT22;8760;52.248;20.952;2022-08-19T04:15:30;21.60;99.70
17284;DHT22;8760;52.248;20.952;2022-08-19T04:18:01;21.60;99.90
17284;DHT22;8760;52.248;20.952;2022-08-19T04:20:27;21.60;87.90
17284;DHT22;8760;52.248;20.952;2022-08-19T04:22:56;21.70;95.30
17284;DHT22;8760;52.248;20.952;2022-08-19T04:25:23;21.70;95.90
17284;DHT22;8760;52.248;20.952;2022-08-19T04:27:50;21.80;86.60
17284;DHT22;8760;52.248;20.952;2022-08-19T04:30:18;21.90;76.70
17284;DHT22;8760;52.248;20.952;2022-08-19T04:32:45;22.00;37.30
17284;DHT22;8760;52.248;20.952;2022-08-19T04:35:12;22.10;31.70
17284;DHT22;8760;52.248;20.952;2022-08-19T04:37:39;22.30;1.00
17284;DHT22;8760;52.248;20.952;2022-08-19T04:40:07;22.40;1.00
17284;DHT22;8760;52.248;20.952;2022-08-19T04:42:51;22.50;1.00
17284;DHT22;8760;52.248;20.952;2022-08-19T04:45:20;22.70;1.00
17284;DHT22;8760;52.248;20.952;2022-08-19T04:47:47;22.90;1.00
17284;DHT22;8760;52.248;20.952;2022-08-19T04:50:14;23.00;1.00
17284;DHT22;8760;52.248;20.952;2022-08-19T04:52:41;23.10;1.00
17284;DHT22;8760;52.248;20.952;2022-08-19T04:55:08;23.10;1.00
17284;DHT22;8760;52.248;20.952;2022-08-19T04:57:35;23.20;99.90
17284;DHT22;8760;52.248;20.952;2022-08-19T05:00:07;23.40;99.90
17284;DHT22;8760;52.248;20.952;2022-08-19T05:02:36;23.50;1.00
17284;DHT22;8760;52.248;20.952;2022-08-19T05:05:04;23.60;99.90
17284;DHT22;8760;52.248;20.952;2022-08-19T05:07:32;23.70;99.90
17284;DHT22;8760;52.248;20.952;2022-08-19T05:09:58;23.80;1.00
17284;DHT22;8760;52.248;20.952;2022-08-19T05:12:25;23.90;99.90
17284;DHT22;8760;52.248;20.952;2022-08-19T05:14:53;23.90;99.90
17284;DHT22;8760;52.248;20.952;2022-08-19T05:17:20;23.90;99.90
17284;DHT22;8760;52.248;20.952;2022-08-19T05:19:48;24.00;1.00
17284;DHT22;8760;52.248;20.952;2022-08-19T05:22:32;24.00;1.00
17284;DHT22;8760;52.248;20.952;2022-08-19T05:25:04;23.90;1.00
17284;DHT22;8760;52.248;20.952;2022-08-19T05:27:32;23.90;1.00
17284;DHT22;8760;52.248;20.952;2022-08-19T05:29:59;23.90;1.00
17284;DHT22;8760;52.248;20.952;2022-08-19T05:32:27;24.00;1.00
17284;DHT22;8760;52.248;20.952;2022-08-19T05:34:55;24.00;1.00
17284;DHT22;8760;52.248;20.952;2022-08-19T05:37:22;24.10;1.00
17284;DHT22;8760;52.248;20.952;2022-08-19T05:39:52;24.20;99.90
17284;DHT22;8760;52.248;20.952;2022-08-19T05:42:19;24.30;1.00
17284;DHT22;8760;52.248;20.952;2022-08-19T05:44:48;24.30;1.00
17284;DHT22;8760;52.248;20.952;2022-08-19T05:47:16;24.40;99.90
17284;DHT22;8760;52.248;20.952;2022-08-19T05:49:45;24.40;99.90
17284;DHT22;8760;52.248;20.952;2022-08-19T05:52:14;24.50;1.00
17284;DHT22;8760;52.248;20.952;2022-08-19T05:54:42;24.60;1.00
17284;DHT22;8760;52.248;20.952;2022-08-19T05:57:10;24.80;1.00
17284;DHT22;8760;52.248;20.952;2022-08-19T05:59:37;24.90;99.90
17284;DHT22;8760;52.248;20.952;2022-08-19T06:02:05;25.00;99.90
17284;DHT22;8760;52.248;20.952;2022-08-19T06:04:33;25.10;59.80
17284;DHT22;8760;52.248;20.952;2022-08-19T06:06:59;25.20;99.90
17284;DHT22;8760;52.248;20.952;2022-08-19T06:09:28;25.30;1.00
17284;DHT22;8760;52.248;20.952;2022-08-19T06:11:57;25.60;1.00
17284;DHT22;8760;52.248;20.952;2022-08-19T06:14:31;25.80;99.90
17284;DHT22;8760;52.248;20.952;2022-08-19T06:16:58;26.00;1.00
17284;DHT22;8760;52.248;20.952;2022-08-19T06:19:28;26.20;6.70
17284;DHT22;8760;52.248;20.952;2022-08-19T06:21:56;26.40;1.00
17284;DHT22;8760;52.248;20.952;2022-08-19T06:24:25;26.60;1.00
17284;DHT22;8760;52.248;20.952;2022-08-19T06:26:55;26.90;1.00
17284;DHT22;8760;52.248;20.952;2022-08-19T06:29:24;27.10;99.90
17284;DHT22;8760;52.248;20.952;2022-08-19T06:31:53;27.10;99.90
17284;DHT22;8760;52.248;20.952;2022-08-19T06:34:21;27.10;99.90
17284;DHT22;8760;52.248;20.952;2022-08-19T06:36:50;27.20;99.90
17284;DHT22;8760;52.248;20.952;2022-08-19T06:39:18;27.20;20.00
17284;DHT22;8760;52.248;20.952;2022-08-19T06:41:48;27.40;1.00
17284;DHT22;8760;52.248;20.952;2022-08-19T06:44:16;27.60;1.00
17284;DHT22;8760;52.248;20.952;2022-08-19T06:46:44;27.90;1.00
17284;DHT22;8760;52.248;20.952;2022-08-19T06:49:11;28.10;1.00
17284;DHT22;8760;52.248;20.952;2022-08-19T06:51:40;28.20;1.00
17284;DHT22;8760;52.248;20.952;2022-08-19T06:54:07;28.20;99.90
17284;DHT22;8760;52.248;20.952;2022-08-19T06:56:34;28.10;99.90
17284;DHT22;8760;52.248;20.952;2022-08-19T06:59:02;28.00;99.90
17284;DHT22;8760;52.248;20.952;2022-08-19T07:01:34;27.90;99.90
17284;DHT22;8760;52.248;20.952;2022-08-19T07:04:03;28.00;99.90
17284;DHT22;8760;52.248;20.952;2022-08-19T07:06:30;28.00;99.90
17284;DHT22;8760;52.248;20.952;2022-08-19T07:08:57;28.30;99.90
17284;DHT22;8760;52.248;20.952;2022-08-19T07:11:24;28.20;99.90
17284;DHT22;8760;52.248;20.952;2022-08-19T07:13:51;28.10;99.90
17284;DHT22;8760;52.248;20.952;2022-08-19T07:16:19;27.90;99.90
17284;DHT22;8760;52.248;20.952;2022-08-19T07:18:47;27.80;99.90
17284;DHT22;8760;52.248;20.952;2022-08-19T07:21:16;27.70;99.90
17284;DHT22;8760;52.248;20.952;2022-08-19T07:23:44;28.10;99.90
17284;DHT22;8760;52.248;20.952;2022-08-19T07:26:13;28.70;99.90
17284;DHT22;8760;52.248;20.952;2022-08-19T07:28:41;29.20;99.90
17284;DHT22;8760;52.248;20.952;2022-08-19T07:31:10;29.40;99.90
17284;DHT22;8760;52.248;20.952;2022-08-19T07:33:37;29.90;92.40
17284;DHT22;8760;52.248;20.952;2022-08-19T07:36:08;30.20;1.00
17284;DHT22;8760;52.248;20.952;2022-08-19T07:38:37;30.40;1.00
17284;DHT22;8760;52.248;20.952;2022-08-19T07:41:06;30.60;1.00
17284;DHT22;8760;52.248;20.952;2022-08-19T07:43:33;30.80;1.00
17284;DHT22;8760;52.248;20.952;2022-08-19T07:46:00;30.90;1.00
17284;DHT22;8760;52.248;20.952;2022-08-19T07:48:27;30.90;1.00
17284;DHT22;8760;52.248;20.952;2022-08-19T07:50:56;30.90;1.00
17284;DHT22;8760;52.248;20.952;2022-08-19T07:53:24;31.20;1.00
17284;DHT22;8760;52.248;20.952;2022-08-19T07:55:51;31.30;1.00
17284;DHT22;8760;52.248;20.952;2022-08-19T07:58:21;31.40;1.00
17284;DHT22;8760;52.248;20.952;2022-08-19T08:00:49;31.50;1.00
17284;DHT22;8760;52.248;20.952;2022-08-19T08:03:19;31.50;1.00
17284;DHT22;8760;52.248;20.952;2022-08-19T08:05:46;31.40;1.00
17284;DHT22;8760;52.248;20.952;2022-08-19T08:08:31;31.10;1.00
17284;DHT22;8760;52.248;20.952;2022-08-19T08:11:17;30.90;1.00
17284;DHT22;8760;52.248;20.952;2022-08-19T08:13:44;30.80;1.00
17284;DHT22;8760;52.248;20.952;2022-08-19T08:16:11;30.70;1.00
17284;DHT22;8760;52.248;20.952;2022-08-19T08:18:38;31.10;1.00
17284;DHT22;8760;52.248;20.952;2022-08-19T08:21:07;31.10;1.00
17284;DHT22;8760;52.248;20.952;2022-08-19T08:23:36;31.50;1.00
17284;DHT22;8760;52.248;20.952;2022-08-19T08:26:03;31.60;1.00
17284;DHT22;8760;52.248;20.952;2022-08-19T08:28:30;31.80;1.00
17284;DHT22;8760;52.248;20.952;2022-08-19T08:30:58;31.90;1.00
17284;DHT22;8760;52.248;20.952;2022-08-19T08:33:27;32.30;1.00
17284;DHT22;8760;52.248;20.952;2022-08-19T08:35:54;32.60;1.00
17284;DHT22;8760;52.248;20.952;2022-08-19T08:38:21;32.80;1.00
17284;DHT22;8760;52.248;20.952;2022-08-19T08:40:52;33.00;1.00
17284;DHT22;8760;52.248;20.952;2022-08-19T08:43:24;33.30;1.00
17284;DHT22;8760;52.248;20.952;2022-08-19T08:46:00;33.40;1.00
17284;DHT22;8760;52.248;20.952;2022-08-19T08:48:34;33.50;1.00
17284;DHT22;8760;52.248;20.952;2022-08-19T08:51:07;33.40;99.90
17284;DHT22;8760;52.248;20.952;2022-08-19T08:53:36;33.60;99.90
17284;DHT22;8760;52.248;20.952;2022-08-19T08:56:06;33.80;99.90
17284;DHT22;8760;52.248;20.952;2022-08-19T08:58:45;34.00;99.90
17284;DHT22;8760;52.248;20.952;2022-08-19T09:01:13;34.30;99.90
17284;DHT22;8760;52.248;20.952;2022-08-19T09:03:41;34.80;99.90
17284;DHT22;8760;52.248;20.952;2022-08-19T09:06:14;34.80;99.90
17284;DHT22;8760;52.248;20.952;2022-08-19T09:09:00;35.10;99.90
17284;DHT22;8760;52.248;20.952;2022-08-19T09:11:40;35.10;99.90
17284;DHT22;8760;52.248;20.952;2022-08-19T09:14:13;35.30;99.90
17284;DHT22;8760;52.248;20.952;2022-08-19T09:16:41;35.10;99.90
17284;DHT22;8760;52.248;20.952;2022-08-19T09:19:09;35.20;99.90
17284;DHT22;8760;52.248;20.952;2022-08-19T09:21:36;35.20;99.90
17284;DHT22;8760;52.248;20.952;2022-08-19T09:24:06;35.30;99.90
17284;DHT22;8760;52.248;20.952;2022-08-19T09:26:34;35.30;99.90
17284;DHT22;8760;52.248;20.952;2022-08-19T09:29:01;35.20;99.90
17284;DHT22;8760;52.248;20.952;2022-08-19T09:31:31;35.20;99.90
17284;DHT22;8760;52.248;20.952;2022-08-19T09:33:58;35.20;99.90
17284;DHT22;8760;52.248;20.952;2022-08-19T09:36:27;35.20;99.90
17284;DHT22;8760;52.248;20.952;2022-08-19T09:38:58;35.50;99.90
17284;DHT22;8760;52.248;20.952;2022-08-19T09:41:26;35.80;99.90
17284;DHT22;8760;52.248;20.952;2022-08-19T09:43:56;36.10;99.90
17284;DHT22;8760;52.248;20.952;2022-08-19T09:46:24;35.80;99.90
17284;DHT22;8760;52.248;20.952;2022-08-19T09:48:52;36.00;99.90
17284;DHT22;8760;52.248;20.952;2022-08-19T09:51:21;36.10;99.90
17284;DHT22;8760;52.248;20.952;2022-08-19T09:53:49;36.00;99.90
17284;DHT22;8760;52.248;20.952;2022-08-19T09:56:18;36.40;99.90
17284;DHT22;8760;52.248;20.952;2022-08-19T09:58:45;36.60;99.90
17284;DHT22;8760;52.248;20.952;2022-08-19T10:01:18;36.70;99.90
17284;DHT22;8760;52.248;20.952;2022-08-19T10:03:48;36.50;99.90
17284;DHT22;8760;52.248;20.952;2022-08-19T10:06:17;37.00;99.90
17284;DHT22;8760;52.248;20.952;2022-08-19T10:08:44;37.00;99.90
17284;DHT22;8760;52.248;20.952;2022-08-19T10:11:11;36.80;99.90
17284;DHT22;8760;52.248;20.952;2022-08-19T10:13:39;36.50;99.90
17284;DHT22;8760;52.248;20.952;2022-08-19T10:16:09;36.20;99.90
17284;DHT22;8760;52.248;20.952;2022-08-19T10:18:38;35.60;99.90
17284;DHT22;8760;52.248;20.952;2022-08-19T10:21:10;35.30;99.90
17284;DHT22;8760;52.248;20.952;2022-08-19T10:23:38;35.20;99.90
17284;DHT22;8760;52.248;20.952;2022-08-19T10:26:06;35.20;99.90
17284;DHT22;8760;52.248;20.952;2022-08-19T10:28:34;35.00;99.90
17284;DHT22;8760;52.248;20.952;2022-08-19T10:31:06;35.10;99.90
17284;DHT22;8760;52.248;20.952;2022-08-19T10:33:33;35.30;99.90
17284;DHT22;8760;52.248;20.952;2022-08-19T10:36:03;35.40;99.90
17284;DHT22;8760;52.248;20.952;2022-08-19T10:38:30;35.60;99.90
17284;DHT22;8760;52.248;20.952;2022-08-19T10:40:57;35.70;99.90
17284;DHT22;8760;52.248;20.952;2022-08-19T10:43:24;35.20;99.90
17284;DHT22;8760;52.248;20.952;2022-08-19T10:45:54;35.10;99.90
17284;DHT22;8760;52.248;20.952;2022-08-19T10:48:24;35.10;99.90
17284;DHT22;8760;52.248;20.952;2022-08-19T10:50:51;34.80;99.90
17284;DHT22;8760;52.248;20.952;2022-08-19T10:53:36;34.70;99.90
17284;DHT22;8760;52.248;20.952;2022-08-19T10:56:03;34.30;99.90
17284;DHT22;8760;52.248;20.952;2022-08-19T10:58:48;34.10;99.90
17284;DHT22;8760;52.248;20.952;2022-08-19T11:01:15;33.90;99.90
17284;DHT22;8760;52.248;20.952;2022-08-19T11:03:41;33.90;99.90
17284;DHT22;8760;52.248;20.952;2022-08-19T11:06:11;34.10;99.90
17284;DHT22;8760;52.248;20.952;2022-08-19T11:08:39;34.10;99.90
17284;DHT22;8760;52.248;20.952;2022-08-19T11:11:08;34.20;99.90
17284;DHT22;8760;52.248;20.952;2022-08-19T11:13:38;33.90;99.90
17284;DHT22;8760;52.248;20.952;2022-08-19T11:16:08;33.60;99.90
17284;DHT22;8760;52.248;20.952;2022-08-19T11:18:39;33.40;99.90
17284;DHT22;8760;52.248;20.952;2022-08-19T11:21:08;33.30;99.90
17284;DHT22;8760;52.248;20.952;2022-08-19T11:23:35;33.30;99.90
17284;DHT22;8760;52.248;20.952;2022-08-19T11:26:04;33.50;99.90
17284;DHT22;8760;52.248;20.952;2022-08-19T11:28:30;33.40;99.90
17284;DHT22;8760;52.248;20.952;2022-08-19T11:30:57;33.30;99.90
17284;DHT22;8760;52.248;20.952;2022-08-19T11:33:24;33.20;99.90
17284;DHT22;8760;52.248;20.952;2022-08-19T11:35:52;33.10;99.90
17284;DHT22;8760;52.248;20.952;2022-08-19T11:38:19;33.20;99.90
17284;DHT22;8760;52.248;20.952;2022-08-19T11:40:54;33.30;99.90
17284;DHT22;8760;52.248;20.952;2022-08-19T11:43:22;33.40;99.90
17284;DHT22;8760;52.248;20.952;2022-08-19T11:45:50;33.30;99.90
17284;DHT22;8760;52.248;20.952;2022-08-19T11:48:16;33.40;99.90
17284;DHT22;8760;52.248;20.952;2022-08-19T11:50:48;33.40;99.90
17284;DHT22;8760;52.248;20.952;2022-08-19T11:53:15;33.30;99.90
17284;DHT22;8760;52.248;20.952;2022-08-19T11:55:44;33.00;99.90
17284;DHT22;8760;52.248;20.952;2022-08-19T11:58:11;32.90;99.90
17284;DHT22;8760;52.248;20.952;2022-08-19T12:00:40;32.80;99.90
17284;DHT22;8760;52.248;20.952;2022-08-19T12:03:07;32.90;99.90
17284;DHT22;8760;52.248;20.952;2022-08-19T12:05:36;32.90;99.90
17284;DHT22;8760;52.248;20.952;2022-08-19T12:08:04;32.90;99.90
17284;DHT22;8760;52.248;20.952;2022-08-19T12:10:30;33.00;99.90
17284;DHT22;8760;52.248;20.952;2022-08-19T12:12:57;33.00;99.90
17284;DHT22;8760;52.248;20.952;2022-08-19T12:15:24;32.80;99.90
17284;DHT22;8760;52.248;20.952;2022-08-19T12:17:54;32.60;99.90
17284;DHT22;8760;52.248;20.952;2022-08-19T12:20:22;32.60;99.90
17284;DHT22;8760;52.248;20.952;2022-08-19T12:22:50;32.60;99.90
17284;DHT22;8760;52.248;20.952;2022-08-19T12:25:17;32.70;99.90
17284;DHT22;8760;52.248;20.952;2022-08-19T12:27:44;32.70;99.90
17284;DHT22;8760;52.248;20.952;2022-08-19T12:30:12;32.70;99.90
17284;DHT22;8760;52.248;20.952;2022-08-19T12:32:39;32.80;99.90
17284;DHT22;8760;52.248;20.952;2022-08-19T12:35:08;32.70;99.90
17284;DHT22;8760;52.248;20.952;2022-08-19T12:37:37;32.70;99.90
17284;DHT22;8760;52.248;20.952;2022-08-19T12:40:05;32.70;99.90
17284;DHT22;8760;52.248;20.952;2022-08-19T12:42:31;32.60;99.90
17284;DHT22;8760;52.248;20.952;2022-08-19T12:44:58;32.60;99.90
17284;DHT22;8760;52.248;20.952;2022-08-19T12:47:25;32.50;99.90
17284;DHT22;8760;52.248;20.952;2022-08-19T12:49:52;32.60;99.90
17284;DHT22;8760;52.248;20.952;2022-08-19T12:52:22;32.60;99.90
17284;DHT22;8760;52.248;20.952;2022-08-19T12:54:49;32.70;99.90
17284;DHT22;8760;52.248;20.952;2022-08-19T12:57:16;32.60;99.90
17284;DHT22;8760;52.248;20.952;2022-08-19T12:59:42;32.60;99.90
17284;DHT22;8760;52.248;20.952;2022-08-19T13:02:10;32.40;99.90
17284;DHT22;8760;52.248;20.952;2022-08-19T13:04:37;32.30;99.90
17284;DHT22;8760;52.248;20.952;2022-08-19T13:07:06;32.40;99.90
17284;DHT22;8760;52.248;20.952;2022-08-19T13:09:35;32.50;99.90
17284;DHT22;8760;52.248;20.952;2022-08-19T13:12:03;32.60;99.90
17284;DHT22;8760;52.248;20.952;2022-08-19T13:14:33;32.60;99.90
17284;DHT22;8760;52.248;20.952;2022-08-19T13:17:01;32.50;99.90
17284;DHT22;8760;52.248;20.952;2022-08-19T13:19:28;32.50;99.90
17284;DHT22;8760;52.248;20.952;2022-08-19T13:21:56;32.50;99.90
17284;DHT22;8760;52.248;20.952;2022-08-19T13:24:24;32.50;99.90
17284;DHT22;8760;52.248;20.952;2022-08-19T13:26:52;32.50;99.90
17284;DHT22;8760;52.248;20.952;2022-08-19T13:29:18;32.60;99.90
17284;DHT22;8760;52.248;20.952;2022-08-19T13:32:03;32.70;99.90
17284;DHT22;8760;52.248;20.952;2022-08-19T13:34:47;32.60;99.90
17284;DHT22;8760;52.248;20.952;2022-08-19T13:37:14;32.50;99.90
17284;DHT22;8760;52.248;20.952;2022-08-19T13:39:41;32.40;99.90
17284;DHT22;8760;52.248;20.952;2022-08-19T13:42:09;32.50;99.90
17284;DHT22;8760;52.248;20.952;2022-08-19T13:44:36;32.50;99.90
17284;DHT22;8760;52.248;20.952;2022-08-19T13:47:04;32.50;99.90
17284;DHT22;8760;52.248;20.952;2022-08-19T13:49:32;32.70;99.90
17284;DHT22;8760;52.248;20.952;2022-08-19T13:51:59;32.70;99.90
17284;DHT22;8760;52.248;20.952;2022-08-19T13:54:26;32.60;99.90
17284;DHT22;8760;52.248;20.952;2022-08-19T13:56:53;32.60;99.90
17284;DHT22;8760;52.248;20.952;2022-08-19T13:59:21;32.50;99.90
17284;DHT22;8760;52.248;20.952;2022-08-19T14:01:48;32.40;99.90
17284;DHT22;8760;52.248;20.952;2022-08-19T14:04:15;32.20;99.90
17284;DHT22;8760;52.248;20.952;2022-08-19T14:06:42;32.20;99.90
17284;DHT22;8760;52.248;20.952;2022-08-19T14:09:08;32.20;99.90
17284;DHT22;8760;52.248;20.952;2022-08-19T14:11:35;32.30;99.90
17284;DHT22;8760;52.248;20.952;2022-08-19T14:14:02;32.50;99.90
17284;DHT22;8760;52.248;20.952;2022-08-19T14:16:30;32.40;99.90
17284;DHT22;8760;52.248;20.952;2022-08-19T14:18:57;32.40;99.90
17284;DHT22;8760;52.248;20.952;2022-08-19T14:21:24;32.30;99.90
17284;DHT22;8760;52.248;20.952;2022-08-19T14:23:51;32.30;99.90
17284;DHT22;8760;52.248;20.952;2022-08-19T14:26:20;32.20;99.90
17284;DHT22;8760;52.248;20.952;2022-08-19T14:28:46;32.30;99.90
17284;DHT22;8760;52.248;20.952;2022-08-19T14:31:16;32.20;99.90
17284;DHT22;8760;52.248;20.952;2022-08-19T14:33:47;32.30;99.90
17284;DHT22;8760;52.248;20.952;2022-08-19T14:36:14;32.40;99.90
17284;DHT22;8760;52.248;20.952;2022-08-19T14:38:41;32.30;99.90
17284;DHT22;8760;52.248;20.952;2022-08-19T14:41:13;32.20;99.90
17284;DHT22;8760;52.248;20.952;2022-08-19T14:43:41;32.10;99.90
17284;DHT22;8760;52.248;20.952;2022-08-19T14:46:08;32.10;99.90
17284;DHT22;8760;52.248;20.952;2022-08-19T14:48:35;32.10;99.90
17284;DHT22;8760;52.248;20.952;2022-08-19T14:51:05;32.10;99.90
17284;DHT22;8760;52.248;20.952;2022-08-19T14:53:32;32.30;99.90
17284;DHT22;8760;52.248;20.952;2022-08-19T14:56:00;32.20;99.90
17284;DHT22;8760;52.248;20.952;2022-08-19T14:58:27;32.10;99.90
17284;DHT22;8760;52.248;20.952;2022-08-19T15:00:53;32.00;99.90
17284;DHT22;8760;52.248;20.952;2022-08-19T15:03:20;32.00;99.90
17284;DHT22;8760;52.248;20.952;2022-08-19T15:05:47;32.00;99.90
17284;DHT22;8760;52.248;20.952;2022-08-19T15:08:15;32.10;99.90
17284;DHT22;8760;52.248;20.952;2022-08-19T15:10:42;32.20;99.90
17284;DHT22;8760;52.248;20.952;2022-08-19T15:13:08;32.30;99.90
17284;DHT22;8760;52.248;20.952;2022-08-19T15:15:35;32.30;99.90
17284;DHT22;8760;52.248;20.952;2022-08-19T15:18:02;32.10;99.90
17284;DHT22;8760;52.248;20.952;2022-08-19T15:20:29;32.10;99.90
17284;DHT22;8760;52.248;20.952;2022-08-19T15:22:56;32.00;99.90
17284;DHT22;8760;52.248;20.952;2022-08-19T15:25:26;32.00;99.90
17284;DHT22;8760;52.248;20.952;2022-08-19T15:27:53;32.00;99.90
17284;DHT22;8760;52.248;20.952;2022-08-19T15:30:22;32.10;99.90
17284;DHT22;8760;52.248;20.952;2022-08-19T15:32:49;32.10;99.90
17284;DHT22;8760;52.248;20.952;2022-08-19T15:35:18;32.10;99.90
17284;DHT22;8760;52.248;20.952;2022-08-19T15:37:45;32.00;99.90
17284;DHT22;8760;52.248;20.952;2022-08-19T15:40:12;31.90;99.90
17284;DHT22;8760;52.248;20.952;2022-08-19T15:42:40;31.80;99.90